Time;durP1;ratioP1;P1;durP2;ratioP2;P2;SDS_P1;SDS_P2;PMS_P1;PMS_P2;Temp;Humidity;BMP_temperature;BMP_pressure;BME280_temperature;BME280_humidity;BME280_pressure;Samples;Min_cycle;Max_cycle;Signal;HPM_P1;HPM_P2
2021/07/12 00:00:50;;;;;;;15.78;12.37;;;24.90;69.10;;;;;;1922831;74;21019;-48
2021/07/12 00:03:20;;;;;;;19.02;12.10;;;25.00;68.90;;;;;;1923122;74;21031;-51
2021/07/12 00:05:49;;;;;;;15.78;12.70;;;25.00;68.90;;;;;;1922999;74;21012;-48
2021/07/12 00:08:19;;;;;;;19.00;11.90;;;25.00;68.60;;;;;;1923005;74;21027;-49
2021/07/12 00:10:48;;;;;;;15.53;12.60;;;25.00;68.60;;;;;;1922982;74;21089;-49
2021/07/12 00:13:18;;;;;;;17.00;12.35;;;24.90;68.60;;;;;;1923119;74;21113;-51
2021/07/12 00:15:47;;;;;;;15.25;13.03;;;24.90;68.50;;;;;;1922996;74;21073;-49
2021/07/12 00:18:17;;;;;;;14.73;13.13;;;24.80;68.70;;;;;;1923105;74;21008;-51
2021/07/12 00:20:47;;;;;;;18.07;13.28;;;24.80;68.80;;;;;;1930372;74;21047;-50
2021/07/12 00:23:16;;;;;;;15.58;12.45;;;24.70;69.10;;;;;;1941490;73;21117;-48
2021/07/12 00:25:46;;;;;;;16.57;12.80;;;24.60;69.30;;;;;;1940782;74;20999;-51
2021/07/12 00:28:15;;;;;;;18.00;13.30;;;24.60;69.30;;;;;;1941792;73;21023;-48
2021/07/12 00:30:46;;;;;;;12.90;11.50;;;24.60;69.30;;;;;;1941755;73;21093;-50
2021/07/12 00:33:15;;;;;;;18.60;13.60;;;24.60;69.60;;;;;;1940338;74;21027;-48
2021/07/12 00:35:45;;;;;;;15.30;11.35;;;24.60;69.50;;;;;;1941492;73;21157;-49
2021/07/12 00:38:14;;;;;;;18.25;12.65;;;24.60;69.70;;;;;;1942234;73;21019;-48
2021/07/12 00:40:44;;;;;;;16.67;12.40;;;24.60;69.70;;;;;;1941887;73;21019;-49
2021/07/12 00:43:13;;;;;;;17.95;12.40;;;24.60;69.70;;;;;;1940964;74;21077;-48
2021/07/12 00:45:46;;;;;;;17.55;12.23;;;24.60;69.70;;;;;;1942007;73;21105;-48
2021/07/12 00:48:15;;;;;;;18.05;12.73;;;24.60;69.80;;;;;;1941637;73;20998;-50
2021/07/12 00:50:46;;;;;;;16.82;11.75;;;24.60;69.70;;;;;;1941923;73;21077;-51
2021/07/12 00:53:15;;;;;;;19.87;13.10;;;24.60;69.90;;;;;;1941539;73;21099;-50
2021/07/12 00:55:48;;;;;;;18.73;12.63;;;24.60;70.00;;;;;;1941337;73;21019;-49
2021/07/12 00:58:20;;;;;;;17.50;11.48;;;24.60;69.70;;;;;;1941403;74;21038;-52
2021/07/12 01:00:53;;;;;;;17.55;12.73;;;24.50;69.70;;;;;;1941509;73;21030;-47
2021/07/12 01:03:24;;;;;;;13.93;11.45;;;24.50;69.70;;;;;;1942395;73;21074;-48
2021/07/12 01:05:54;;;;;;;16.82;12.55;;;24.40;69.80;;;;;;1941689;73;21023;-48
2021/07/12 01:08:25;;;;;;;21.45;14.00;;;24.40;69.70;;;;;;1941417;74;21015;-48
2021/07/12 01:11:10;;;;;;;19.95;13.35;;;24.40;70.00;;;;;;1940369;74;21026;-48
2021/07/12 01:13:54;;;;;;;18.57;14.28;;;24.40;69.90;;;;;;1940476;74;21039;-48
2021/07/12 01:16:43;;;;;;;18.05;13.30;;;24.30;69.60;;;;;;1941200;73;21578;-48
2021/07/12 01:19:31;;;;;;;21.23;13.03;;;24.20;69.70;;;;;;1940587;74;21086;-50
2021/07/12 01:22:23;;;;;;;21.37;14.33;;;24.00;70.30;;;;;;1940752;74;21109;-51
2021/07/12 01:25:27;;;;;;;19.15;13.85;;;24.00;70.70;;;;;;1940054;74;21105;-47
2021/07/12 01:28:11;;;;;;;18.80;13.00;;;24.00;70.80;;;;;;1941365;74;21011;-49
2021/07/12 01:30:52;;;;;;;22.93;12.90;;;24.00;70.60;;;;;;1940169;74;21494;-47
2021/07/12 01:33:39;;;;;;;15.90;13.10;;;24.00;70.80;;;;;;1941423;74;21116;-49
2021/07/12 01:36:17;;;;;;;17.57;13.05;;;24.00;70.90;;;;;;1941099;73;21035;-48
2021/07/12 01:39:08;;;;;;;19.45;13.58;;;24.00;70.90;;;;;;1930285;73;21414;-48
2021/07/12 01:41:50;;;;;;;20.88;14.13;;;24.10;71.10;;;;;;1940597;73;21501;-51
2021/07/12 01:44:51;;;;;;;18.52;12.70;;;24.10;70.80;;;;;;1941048;74;21052;-47
2021/07/12 01:47:56;;;;;;;20.00;13.58;;;24.20;71.00;;;;;;1941543;73;21116;-49
2021/07/12 01:50:47;;;;;;;23.50;12.03;;;24.10;70.30;;;;;;1941272;74;21014;-47
2021/07/12 01:53:21;;;;;;;22.35;14.05;;;24.10;70.40;;;;;;1941283;74;21023;-50
2021/07/12 01:56:13;;;;;;;20.10;13.35;;;24.10;70.20;;;;;;1941015;74;21034;-50
2021/07/12 01:58:46;;;;;;;23.15;13.95;;;24.00;70.40;;;;;;1940711;74;20996;-48
2021/07/12 02:01:17;;;;;;;17.27;13.88;;;23.90;70.60;;;;;;1940372;73;21023;-49
2021/07/12 02:03:49;;;;;;;18.12;13.55;;;23.80;71.10;;;;;;1941621;73;21019;-51
2021/07/12 02:06:20;;;;;;;17.48;12.75;;;23.70;71.10;;;;;;1940397;74;21163;-47
2021/07/12 02:08:52;;;;;;;16.97;12.73;;;23.70;71.20;;;;;;1942416;73;21023;-52
2021/07/12 02:11:23;;;;;;;20.35;14.25;;;23.80;71.20;;;;;;1940230;74;21110;-48
2021/07/12 02:13:53;;;;;;;19.02;13.43;;;23.80;71.60;;;;;;1941050;74;21124;-49
2021/07/12 02:16:25;;;;;;;18.30;13.58;;;23.70;70.70;;;;;;1941425;73;21034;-49
2021/07/12 02:18:57;;;;;;;20.92;14.18;;;23.60;71.30;;;;;;1942032;73;21134;-48
2021/07/12 02:21:33;;;;;;;18.70;13.43;;;23.50;71.70;;;;;;1940595;74;21626;-48
2021/07/12 02:24:06;;;;;;;24.30;13.30;;;23.50;71.60;;;;;;1941185;74;21112;-48
2021/07/12 02:26:37;;;;;;;21.12;12.55;;;23.50;71.70;;;;;;1941495;74;21367;-49
2021/07/12 02:29:09;;;;;;;18.52;12.30;;;23.50;71.90;;;;;;1943433;73;21012;-50
2021/07/12 02:31:40;;;;;;;21.73;14.63;;;23.50;72.10;;;;;;1935664;74;21109;-49
2021/07/12 02:34:12;;;;;;;19.60;13.00;;;23.70;71.90;;;;;;1935608;74;21011;-48
2021/07/12 02:36:44;;;;;;;18.10;13.43;;;23.80;71.80;;;;;;1935365;74;21050;-48
2021/07/12 02:39:16;;;;;;;19.00;14.23;;;23.90;71.40;;;;;;1933334;74;21050;-47
2021/07/12 02:41:47;;;;;;;22.90;15.15;;;23.90;71.20;;;;;;1935648;74;21076;-48
2021/07/12 02:44:18;;;;;;;21.05;14.33;;;24.00;70.90;;;;;;1935671;74;21140;-50
2021/07/12 02:46:47;;;;;;;20.17;13.75;;;24.00;70.70;;;;;;1935672;74;21083;-49
2021/07/12 02:49:17;;;;;;;24.92;17.02;;;23.90;70.90;;;;;;1935607;74;21096;-48
2021/07/12 02:51:50;;;;;;;19.67;14.53;;;24.00;70.90;;;;;;1935664;74;21043;-51
2021/07/12 02:54:25;;;;;;;19.95;14.50;;;24.00;70.80;;;;;;1935389;74;21505;-48
2021/07/12 02:56:55;;;;;;;16.73;13.60;;;24.00;70.90;;;;;;1935737;74;21093;-50
2021/07/12 02:59:25;;;;;;;17.95;13.85;;;23.90;70.90;;;;;;1935650;74;21035;-48
2021/07/12 03:01:56;;;;;;;20.92;14.10;;;24.00;71.00;;;;;;1935469;74;21105;-48
2021/07/12 03:04:27;;;;;;;18.20;13.98;;;24.00;70.80;;;;;;1935626;74;21043;-50
2021/07/12 03:06:59;;;;;;;20.25;14.95;;;24.00;71.10;;;;;;1935623;74;21023;-48
2021/07/12 03:09:36;;;;;;;21.10;13.15;;;24.00;71.30;;;;;;1935582;74;21418;-49
2021/07/12 03:12:08;;;;;;;18.35;14.18;;;24.10;71.20;;;;;;1935789;74;21031;-48
2021/07/12 03:14:50;;;;;;;21.82;14.20;;;24.10;71.10;;;;;;1933992;74;21050;-48
2021/07/12 03:17:21;;;;;;;27.32;15.05;;;24.20;71.10;;;;;;1934500;74;21043;-50
2021/07/12 03:19:52;;;;;;;19.30;14.58;;;24.30;70.50;;;;;;1935623;74;21019;-48
2021/07/12 03:22:25;;;;;;;23.32;15.05;;;24.30;70.10;;;;;;1933703;73;21070;-51
2021/07/12 03:24:57;;;;;;;19.82;14.47;;;24.40;70.00;;;;;;1923211;74;21442;-51
2021/07/12 03:27:27;;;;;;;21.50;15.23;;;24.40;70.60;;;;;;1923133;74;21529;-51
2021/07/12 03:30:00;;;;;;;22.37;14.78;;;24.50;69.90;;;;;;1922996;74;21020;-52
2021/07/12 03:32:32;;;;;;;34.67;16.37;;;24.50;69.70;;;;;;1922943;74;21494;-48
2021/07/12 03:35:04;;;;;;;31.65;16.60;;;24.60;69.70;;;;;;1922758;74;21083;-48
2021/07/12 03:37:35;;;;;;;20.20;15.58;;;24.50;69.60;;;;;;1923054;74;21079;-49
2021/07/12 03:40:05;;;;;;;21.73;15.75;;;24.50;69.90;;;;;;1923102;74;21015;-48
2021/07/12 03:42:35;;;;;;;24.25;15.28;;;24.40;70.00;;;;;;1922952;74;21051;-48
2021/07/12 03:45:07;;;;;;;25.08;15.78;;;24.40;69.70;;;;;;1923123;74;21024;-49
2021/07/12 03:47:39;;;;;;;23.38;17.73;;;24.40;69.90;;;;;;1923105;74;21097;-48
2021/07/12 03:50:14;;;;;;;22.27;16.23;;;24.50;69.70;;;;;;1923069;74;21097;-48
2021/07/12 03:52:45;;;;;;;26.15;14.87;;;24.50;69.50;;;;;;1923150;74;21450;-47
2021/07/12 03:55:17;;;;;;;17.70;13.98;;;24.60;69.70;;;;;;1923087;74;21044;-50
2021/07/12 03:57:47;;;;;;;24.07;16.17;;;24.70;69.40;;;;;;1922955;74;21016;-47
2021/07/12 04:00:21;;;;;;;22.58;16.57;;;24.80;69.00;;;;;;1923144;74;21019;-50
2021/07/12 04:02:51;;;;;;;23.55;15.68;;;24.80;68.80;;;;;;1922956;74;21055;-48
2021/07/12 04:05:25;;;;;;;25.00;15.10;;;24.80;68.90;;;;;;1923052;74;21086;-48
2021/07/12 04:07:53;;;;;;;24.87;16.00;;;24.90;69.00;;;;;;1922451;74;21028;-49
2021/07/12 04:10:22;;;;;;;17.62;15.13;;;24.90;68.90;;;;;;1923150;74;21176;-49
2021/07/12 04:12:51;;;;;;;23.87;16.55;;;25.00;69.10;;;;;;1922913;74;21023;-48
2021/07/12 04:15:21;;;;;;;25.43;16.73;;;25.10;68.80;;;;;;1923048;74;21093;-48
2021/07/12 04:17:50;;;;;;;24.77;15.95;;;25.10;68.50;;;;;;1922917;74;20995;-48
2021/07/12 04:20:20;;;;;;;26.65;17.20;;;25.20;68.70;;;;;;1923030;74;21097;-51
2021/07/12 04:22:50;;;;;;;26.30;17.17;;;25.30;68.50;;;;;;1922786;74;21023;-48
2021/07/12 04:25:19;;;;;;;34.50;16.82;;;25.40;68.30;;;;;;1922998;74;21647;-50
2021/07/12 04:27:49;;;;;;;24.12;15.90;;;25.60;68.00;;;;;;1898548;74;21028;-48
2021/07/12 04:30:19;;;;;;;23.12;15.93;;;25.80;67.80;;;;;;1922969;74;20996;-48
2021/07/12 04:32:48;;;;;;;26.48;15.90;;;25.90;67.50;;;;;;1923019;74;21085;-48
2021/07/12 04:35:18;;;;;;;27.87;16.07;;;26.00;67.20;;;;;;1923016;74;21102;-48
2021/07/12 04:37:47;;;;;;;18.62;14.05;;;26.10;66.90;;;;;;1923059;74;21024;-50
2021/07/12 04:40:18;;;;;;;27.60;14.58;;;26.30;66.80;;;;;;1899989;74;21085;-50
2021/07/12 04:42:47;;;;;;;20.72;15.48;;;26.40;66.30;;;;;;1922913;74;21020;-50
2021/07/12 04:45:16;;;;;;;19.73;13.70;;;26.50;65.90;;;;;;1923086;74;21031;-49
2021/07/12 04:47:47;;;;;;;20.23;14.98;;;26.70;65.40;;;;;;1922072;74;21153;-48
2021/07/12 04:50:17;;;;;;;19.30;14.35;;;26.80;65.20;;;;;;1923013;74;20999;-49
2021/07/12 04:52:47;;;;;;;21.02;14.20;;;26.90;65.00;;;;;;1899770;74;21149;-49
2021/07/12 04:55:17;;;;;;;19.07;15.03;;;27.00;64.90;;;;;;1923021;74;21118;-48
2021/07/12 04:57:47;;;;;;;24.92;14.60;;;27.20;64.60;;;;;;1922924;74;21024;-48
2021/07/12 05:00:17;;;;;;;25.40;14.15;;;27.30;64.40;;;;;;1922947;74;21020;-49
2021/07/12 05:02:47;;;;;;;18.05;13.50;;;27.40;64.10;;;;;;1923099;74;21027;-51
2021/07/12 05:05:16;;;;;;;25.60;16.23;;;27.50;63.80;;;;;;1923214;74;21039;-51
2021/07/12 05:07:46;;;;;;;23.12;13.88;;;27.60;63.30;;;;;;1922993;74;21024;-50
2021/07/12 05:10:15;;;;;;;35.83;15.00;;;27.60;63.10;;;;;;1899411;74;21028;-50
2021/07/12 05:12:45;;;;;;;22.40;14.03;;;27.70;63.00;;;;;;1923580;74;21016;-50
2021/07/12 05:15:15;;;;;;;17.27;13.10;;;27.70;63.00;;;;;;1923072;74;21066;-49
2021/07/12 05:17:44;;;;;;;19.55;12.33;;;27.80;63.10;;;;;;1923118;74;21032;-51
2021/07/12 05:20:14;;;;;;;17.02;12.65;;;27.90;63.00;;;;;;1923068;74;21067;-50
2021/07/12 05:22:43;;;;;;;17.48;13.32;;;28.00;63.10;;;;;;1923054;74;21059;-48
2021/07/12 05:25:13;;;;;;;25.30;13.15;;;28.10;62.70;;;;;;1901256;75;21316;-48
2021/07/12 05:27:43;;;;;;;17.37;14.03;;;28.20;62.80;;;;;;1902083;75;21035;-51
2021/07/12 05:30:13;;;;;;;19.57;12.40;;;28.30;62.80;;;;;;1901881;74;21129;-51
2021/07/12 05:32:42;;;;;;;17.82;12.05;;;28.40;62.40;;;;;;1901623;75;21093;-52
2021/07/12 05:35:12;;;;;;;19.00;13.15;;;28.60;62.00;;;;;;1902511;75;21046;-48
2021/07/12 05:37:41;;;;;;;17.52;12.50;;;28.70;61.70;;;;;;1901915;75;21034;-50
2021/07/12 05:40:11;;;;;;;18.12;12.60;;;28.80;61.70;;;;;;1902053;74;21003;-51
2021/07/12 05:42:40;;;;;;;16.42;12.82;;;28.90;61.30;;;;;;1901216;75;21019;-48
2021/07/12 05:45:10;;;;;;;27.62;13.00;;;29.00;61.10;;;;;;1901648;75;21027;-51
2021/07/12 05:47:40;;;;;;;15.55;11.60;;;29.10;61.20;;;;;;1901895;74;21026;-48
2021/07/12 05:50:11;;;;;;;16.75;11.95;;;29.20;61.20;;;;;;1902114;74;21007;-48
2021/07/12 05:52:40;;;;;;;18.55;13.20;;;29.30;61.10;;;;;;1900979;75;21030;-51
2021/07/12 05:55:10;;;;;;;20.37;12.75;;;29.50;61.30;;;;;;1901770;74;21031;-51
2021/07/12 05:57:39;;;;;;;14.65;10.95;;;29.50;60.70;;;;;;1900884;75;21034;-48
2021/07/12 06:00:11;;;;;;;28.15;12.03;;;29.60;60.60;;;;;;1902050;75;21046;-51
2021/07/12 06:02:46;;;;;;;13.30;10.55;;;29.70;60.20;;;;;;1901964;75;21054;-50
2021/07/12 06:05:16;;;;;;;15.28;10.93;;;29.80;59.60;;;;;;1901851;74;21031;-53
2021/07/12 06:07:46;;;;;;;14.35;10.35;;;29.90;58.90;;;;;;1901892;75;21139;-51
2021/07/12 06:10:16;;;;;;;21.77;10.53;;;29.90;58.40;;;;;;1902140;74;21047;-49
2021/07/12 06:12:46;;;;;;;11.78;9.63;;;30.00;58.30;;;;;;1901833;75;21025;-51
2021/07/12 06:15:15;;;;;;;13.15;10.10;;;30.10;58.10;;;;;;1901869;75;21085;-50
2021/07/12 06:17:45;;;;;;;17.42;10.00;;;30.10;58.00;;;;;;1901985;75;21093;-50
2021/07/12 06:20:17;;;;;;;11.78;10.03;;;30.20;57.80;;;;;;1901784;75;21050;-49
2021/07/12 06:22:50;;;;;;;12.37;9.48;;;30.30;57.40;;;;;;1901793;74;21442;-49
2021/07/12 06:25:21;;;;;;;11.87;9.30;;;30.30;57.00;;;;;;1934053;74;21167;-50
2021/07/12 06:27:50;;;;;;;22.05;10.50;;;30.50;56.50;;;;;;1941372;74;21088;-50
2021/07/12 06:30:20;;;;;;;11.97;8.58;;;30.50;56.30;;;;;;1935635;74;20996;-48
2021/07/12 06:32:49;;;;;;;13.98;9.28;;;30.60;55.70;;;;;;1935739;74;21092;-49
2021/07/12 06:35:19;;;;;;;12.60;9.23;;;30.70;55.50;;;;;;1935560;74;21112;-48
2021/07/12 06:37:48;;;;;;;14.07;9.30;;;30.70;55.40;;;;;;1935758;74;21014;-48
2021/07/12 06:40:18;;;;;;;13.13;8.68;;;30.80;55.10;;;;;;1935585;74;21100;-48
2021/07/12 06:42:47;;;;;;;10.85;9.15;;;30.90;54.50;;;;;;1935623;74;21019;-49
2021/07/12 06:45:18;;;;;;;12.68;10.68;;;31.00;54.40;;;;;;1935642;74;21027;-48
2021/07/12 06:47:49;;;;;;;12.98;9.63;;;31.10;53.90;;;;;;1935762;74;21434;-50
2021/07/12 06:50:18;;;;;;;10.55;9.05;;;31.20;54.20;;;;;;1935568;74;21020;-48
2021/07/12 06:52:47;;;;;;;12.13;8.50;;;31.20;54.00;;;;;;1935580;74;21027;-50
2021/07/12 06:55:18;;;;;;;17.30;9.33;;;31.30;53.70;;;;;;1935571;74;21094;-51
2021/07/12 06:57:47;;;;;;;12.20;9.15;;;31.30;53.40;;;;;;1934038;74;21105;-52
2021/07/12 07:00:17;;;;;;;12.30;9.23;;;31.40;53.30;;;;;;1935189;74;21015;-52
2021/07/12 07:02:57;;;;;;;13.83;8.98;;;31.40;53.30;;;;;;1934401;74;21051;-46
2021/07/12 07:05:27;;;;;;;12.20;8.93;;;31.60;53.00;;;;;;1933882;74;21077;-50
2021/07/12 07:07:58;;;;;;;9.93;8.65;;;31.60;52.40;;;;;;1931999;74;21113;-46
2021/07/12 07:10:28;;;;;;;11.55;8.73;;;31.70;52.10;;;;;;1933377;74;21132;-47
2021/07/12 07:12:57;;;;;;;10.48;8.53;;;31.70;52.30;;;;;;1929522;74;21102;-48
2021/07/12 07:15:27;;;;;;;10.18;8.95;;;31.70;52.50;;;;;;1901213;75;21024;-52
2021/07/12 07:17:57;;;;;;;10.90;8.55;;;31.80;52.40;;;;;;1901072;75;21093;-51
2021/07/12 07:20:26;;;;;;;10.78;9.15;;;31.90;52.60;;;;;;1901177;75;21032;-53
2021/07/12 07:22:56;;;;;;;12.23;9.20;;;32.00;52.40;;;;;;1901376;75;21056;-50
2021/07/12 07:25:25;;;;;;;13.00;8.83;;;32.00;52.00;;;;;;1883134;75;21080;-50
2021/07/12 07:27:57;;;;;;;10.05;8.30;;;32.00;52.60;;;;;;1873896;75;21090;-49
2021/07/12 07:30:26;;;;;;;9.73;8.50;;;32.10;52.90;;;;;;1872347;75;21095;-48
2021/07/12 07:32:56;;;;;;;11.10;9.30;;;32.20;52.50;;;;;;1864096;75;21098;-49
2021/07/12 07:35:25;;;;;;;15.23;9.63;;;32.20;52.00;;;;;;1863021;75;21109;-50
2021/07/12 07:37:54;;;;;;;10.93;9.38;;;32.30;52.20;;;;;;1869156;75;21033;-47
2021/07/12 07:40:24;;;;;;;12.20;9.28;;;32.30;51.90;;;;;;1869061;77;21062;-49
2021/07/12 07:42:53;;;;;;;12.23;8.70;;;32.40;51.90;;;;;;1868498;76;21029;-48
2021/07/12 07:45:23;;;;;;;9.90;8.90;;;32.40;52.00;;;;;;1868684;77;21085;-51
2021/07/12 07:47:52;;;;;;;9.88;8.60;;;32.40;51.80;;;;;;1868931;75;21163;-51
2021/07/12 07:50:23;;;;;;;15.25;8.73;;;32.50;51.70;;;;;;1884985;75;21095;-46
2021/07/12 07:52:54;;;;;;;12.05;8.83;;;32.50;51.80;;;;;;1894722;75;21108;-48
2021/07/12 07:55:23;;;;;;;15.53;9.70;;;32.60;52.00;;;;;;1898313;75;21043;-53
2021/07/12 07:57:53;;;;;;;11.55;10.35;;;32.60;50.80;;;;;;1895829;75;21062;-49
2021/07/12 08:00:22;;;;;;;11.43;9.28;;;32.60;50.30;;;;;;1901100;75;21114;-49
2021/07/12 08:02:52;;;;;;;10.78;8.35;;;32.70;50.50;;;;;;1864349;76;21037;-51
2021/07/12 08:05:22;;;;;;;11.90;9.20;;;32.70;50.60;;;;;;1901015;75;21101;-51
2021/07/12 08:07:51;;;;;;;11.38;8.98;;;32.80;50.60;;;;;;1864859;77;21038;-49
2021/07/12 08:10:20;;;;;;;10.85;9.23;;;32.80;51.20;;;;;;1900965;75;21155;-51
2021/07/12 08:12:51;;;;;;;13.85;9.83;;;32.80;51.70;;;;;;1864845;77;21070;-53
2021/07/12 08:15:20;;;;;;;13.70;9.78;;;32.90;51.30;;;;;;1899238;75;21066;-48
2021/07/12 08:17:52;;;;;;;12.18;9.40;;;33.00;50.70;;;;;;1901005;75;21058;-51
2021/07/12 08:20:21;;;;;;;10.65;8.83;;;33.00;50.20;;;;;;1901099;75;21124;-49
2021/07/12 08:22:51;;;;;;;12.60;8.50;;;33.10;50.00;;;;;;1901149;75;21057;-51
2021/07/12 08:25:21;;;;;;;12.68;9.63;;;33.10;49.90;;;;;;1904799;74;21089;-52
2021/07/12 08:27:52;;;;;;;21.93;15.63;;;33.10;49.50;;;;;;1913587;75;21085;-50
2021/07/12 08:30:22;;;;;;;14.55;10.58;;;33.20;49.10;;;;;;1906478;75;21077;-52
2021/07/12 08:32:52;;;;;;;11.95;9.18;;;33.20;48.50;;;;;;1908102;74;21015;-49
2021/07/12 08:35:21;;;;;;;12.45;9.30;;;33.20;48.10;;;;;;1900604;75;21079;-49
2021/07/12 08:37:55;;;;;;;12.37;9.73;;;33.30;48.00;;;;;;1901006;75;21367;-47
2021/07/12 08:40:28;;;;;;;11.65;10.15;;;33.30;48.00;;;;;;1900772;75;21084;-47
2021/07/12 08:42:59;;;;;;;14.73;10.82;;;33.40;47.80;;;;;;1901155;75;21169;-50
2021/07/12 08:45:29;;;;;;;13.65;10.95;;;33.50;47.90;;;;;;1900948;74;21049;-55
2021/07/12 08:47:59;;;;;;;16.00;10.95;;;33.50;47.60;;;;;;1900733;74;21074;-54
2021/07/12 08:50:28;;;;;;;16.42;10.23;;;33.60;47.30;;;;;;1900579;74;21094;-51
2021/07/12 08:52:58;;;;;;;16.32;10.43;;;33.60;47.30;;;;;;1903048;74;21071;-52
2021/07/12 08:55:28;;;;;;;13.45;9.98;;;33.60;47.30;;;;;;1903692;74;21078;-53
2021/07/12 08:58:06;;;;;;;14.07;10.30;;;33.70;47.30;;;;;;1903039;74;21063;-52
2021/07/12 09:00:41;;;;;;;11.90;9.85;;;33.80;47.30;;;;;;1901456;75;21088;-54
2021/07/12 09:03:18;;;;;;;13.05;10.38;;;33.80;47.20;;;;;;1900571;75;21431;-52
2021/07/12 09:06:08;;;;;;;16.97;10.68;;;33.90;46.90;;;;;;1900544;75;21087;-50
2021/07/12 09:08:45;;;;;;;13.68;10.20;;;33.80;46.70;;;;;;1902426;74;21015;-55
2021/07/12 09:11:28;;;;;;;12.82;11.10;;;33.90;46.90;;;;;;1900918;75;21469;-50
2021/07/12 09:14:07;;;;;;;16.10;10.00;;;33.80;47.10;;;;;;1901104;75;21023;-55
2021/07/12 09:16:59;;;;;;;12.60;10.40;;;33.90;46.90;;;;;;1900801;75;21054;-54
2021/07/12 09:19:38;;;;;;;13.78;9.85;;;33.90;46.60;;;;;;1898271;75;21133;-55
2021/07/12 09:22:10;;;;;;;13.32;10.38;;;34.10;46.60;;;;;;1900921;75;21118;-55
2021/07/12 09:24:56;;;;;;;14.33;10.95;;;34.20;46.30;;;;;;1901081;75;21079;-52
2021/07/12 09:27:24;;;;;;;14.93;10.90;;;34.20;46.00;;;;;;1900321;74;21126;-55
2021/07/12 09:29:56;;;;;;;17.85;10.82;;;34.30;46.00;;;;;;1901042;75;21451;-52
2021/07/12 09:32:27;;;;;;;17.15;10.40;;;34.30;45.70;;;;;;1899388;75;21433;-56
2021/07/12 09:35:01;;;;;;;14.75;10.85;;;34.30;45.70;;;;;;1901136;75;21092;-51
2021/07/12 09:37:30;;;;;;;15.08;11.53;;;34.40;45.60;;;;;;1901329;75;21082;-52
2021/07/12 09:40:00;;;;;;;14.07;10.55;;;34.30;45.40;;;;;;1900850;75;21003;-51
2021/07/12 09:42:31;;;;;;;17.17;11.00;;;34.30;45.70;;;;;;1901144;75;21027;-53
2021/07/12 09:45:02;;;;;;;13.48;11.00;;;34.40;45.70;;;;;;1933712;74;20995;-50
2021/07/12 09:47:34;;;;;;;16.73;11.08;;;34.40;45.30;;;;;;1933859;74;21063;-51
2021/07/12 09:50:24;;;;;;;15.40;11.63;;;34.40;44.90;;;;;;1934760;74;21051;-50
2021/07/12 09:52:56;;;;;;;17.87;11.28;;;34.40;44.90;;;;;;1934950;74;21067;-52
2021/07/12 09:55:30;;;;;;;17.60;11.25;;;34.50;44.60;;;;;;1934400;74;21221;-52
2021/07/12 09:58:20;;;;;;;14.33;10.97;;;34.50;44.90;;;;;;1934987;74;21128;-49
2021/07/12 10:00:52;;;;;;;13.48;10.95;;;34.60;44.80;;;;;;1934695;74;21443;-49
2021/07/12 10:03:23;;;;;;;14.45;11.10;;;34.50;43.80;;;;;;1934926;74;21074;-49
2021/07/12 10:05:53;;;;;;;18.15;11.68;;;34.40;43.10;;;;;;1934720;74;21442;-51
2021/07/12 10:08:22;;;;;;;19.92;11.95;;;34.40;43.00;;;;;;1934569;74;21004;-48
2021/07/12 10:10:52;;;;;;;17.27;10.58;;;34.40;42.60;;;;;;1934545;74;21040;-51
2021/07/12 10:13:21;;;;;;;15.78;12.28;;;34.40;42.40;;;;;;1934821;74;21077;-50
2021/07/12 10:15:52;;;;;;;15.30;11.97;;;34.40;42.30;;;;;;1934620;74;21003;-53
2021/07/12 10:18:21;;;;;;;21.17;11.88;;;34.50;42.60;;;;;;1933789;74;21110;-50
2021/07/12 10:20:52;;;;;;;16.85;12.30;;;34.50;42.80;;;;;;1934795;74;21153;-51
2021/07/12 10:23:22;;;;;;;19.20;12.28;;;34.50;42.90;;;;;;1934771;74;21148;-47
2021/07/12 10:25:55;;;;;;;14.80;12.13;;;34.50;43.50;;;;;;1935425;74;21089;-54
2021/07/12 10:28:37;;;;;;;19.32;16.10;;;34.50;43.70;;;;;;1940582;74;21051;-53
2021/07/12 10:31:17;;;;;;;19.12;13.10;;;34.60;43.90;;;;;;1941019;74;21139;-47
2021/07/12 10:33:46;;;;;;;16.42;12.53;;;34.60;43.10;;;;;;1932266;74;21124;-50
2021/07/12 10:36:38;;;;;;;12.95;11.43;;;34.60;42.60;;;;;;1934609;74;21082;-47
2021/07/12 10:39:07;;;;;;;21.17;11.70;;;34.70;42.10;;;;;;1934845;74;21020;-47
2021/07/12 10:41:39;;;;;;;15.95;11.88;;;34.70;41.50;;;;;;1934790;74;21124;-45
2021/07/12 10:44:09;;;;;;;60.90;17.73;;;34.80;40.30;;;;;;1932353;74;20999;-50
2021/07/12 10:46:40;;;;;;;18.00;12.60;;;34.80;42.10;;;;;;1934550;74;21020;-47
2021/07/12 10:49:34;;;;;;;15.50;11.70;;;34.90;43.00;;;;;;1934963;74;21051;-50
2021/07/12 10:52:05;;;;;;;13.58;11.53;;;35.00;42.80;;;;;;1934808;74;21012;-52
2021/07/12 10:54:46;;;;;;;20.55;12.20;;;35.00;43.00;;;;;;1934605;74;21023;-53
2021/07/12 10:57:19;;;;;;;13.22;11.43;;;35.10;42.90;;;;;;1922829;74;21108;-50
2021/07/12 10:59:49;;;;;;;22.90;15.58;;;35.20;43.00;;;;;;1934733;74;21019;-51
2021/07/12 11:02:21;;;;;;;21.42;12.40;;;35.20;42.80;;;;;;1931388;74;21256;-53
2021/07/12 11:05:03;;;;;;;17.15;12.65;;;35.20;41.20;;;;;;1933929;74;21587;-52
2021/07/12 11:07:45;;;;;;;19.62;11.65;;;35.20;39.50;;;;;;1934053;74;21039;-48
2021/07/12 11:10:38;;;;;;;16.20;11.55;;;35.20;38.80;;;;;;1934849;74;21066;-50
2021/07/12 11:13:05;;;;;;;19.23;11.57;;;35.30;37.60;;;;;;1934296;74;21141;-54
2021/07/12 11:15:36;;;;;;;16.52;11.22;;;35.40;37.60;;;;;;1934740;74;21184;-53
2021/07/12 11:18:08;;;;;;;15.80;10.88;;;35.40;37.00;;;;;;1934883;74;21081;-53
2021/07/12 11:20:45;;;;;;;16.02;11.28;;;35.50;36.60;;;;;;1935010;74;21055;-51
2021/07/12 11:23:43;;;;;;;19.48;10.20;;;35.50;36.40;;;;;;1934954;74;21148;-48
2021/07/12 11:26:34;;;;;;;14.38;9.90;;;35.70;36.00;;;;;;1934874;74;21050;-52
2021/07/12 11:29:17;;;;;;;15.93;9.48;;;35.60;35.40;;;;;;1900992;74;21035;-50
2021/07/12 11:31:52;;;;;;;14.18;9.98;;;35.60;34.50;;;;;;1944761;74;21120;-52
2021/07/12 11:34:27;;;;;;;13.38;10.32;;;35.50;34.50;;;;;;1943802;74;21078;-49
2021/07/12 11:37:02;;;;;;;14.78;9.53;;;35.50;34.20;;;;;;1918040;74;21112;-54
2021/07/12 11:39:34;;;;;;;15.28;9.10;;;35.50;34.60;;;;;;1944999;74;21501;-53
2021/07/12 11:42:32;;;;;;;14.07;9.90;;;35.60;34.60;;;;;;1944315;73;21070;-49
2021/07/12 11:45:16;;;;;;;13.53;10.38;;;35.60;34.90;;;;;;1944365;74;21007;-50
2021/07/12 11:47:47;;;;;;;14.58;10.40;;;35.60;35.20;;;;;;1945700;74;21081;-54
2021/07/12 11:50:21;;;;;;;19.40;10.18;;;35.60;35.10;;;;;;1945325;74;21058;-52
2021/07/12 11:52:56;;;;;;;16.62;10.20;;;35.60;35.10;;;;;;1945429;74;21118;-49
2021/07/12 11:55:28;;;;;;;16.62;12.80;;;35.70;36.00;;;;;;1945310;74;21014;-53
2021/07/12 11:58:01;;;;;;;16.17;9.43;;;35.70;36.20;;;;;;1945308;74;21128;-49
2021/07/12 12:00:38;;;;;;;20.65;10.18;;;35.80;35.70;;;;;;1945587;74;21019;-52
2021/07/12 12:03:13;;;;;;;12.60;9.98;;;35.80;36.10;;;;;;1944376;74;21517;-51
2021/07/12 12:05:44;;;;;;;14.60;10.00;;;35.80;35.20;;;;;;1945476;74;21027;-52
2021/07/12 12:08:18;;;;;;;13.80;9.58;;;35.60;35.50;;;;;;1945304;74;21018;-50
2021/07/12 12:10:50;;;;;;;11.83;9.05;;;35.40;35.80;;;;;;1945270;73;21084;-52
2021/07/12 12:13:20;;;;;;;22.58;10.28;;;35.40;35.90;;;;;;1945219;74;21019;-50
2021/07/12 12:15:52;;;;;;;13.03;9.40;;;35.30;36.10;;;;;;1945277;73;21116;-48
2021/07/12 12:18:27;;;;;;;10.65;9.53;;;35.30;37.10;;;;;;1945369;74;21019;-49
2021/07/12 12:20:58;;;;;;;11.30;9.13;;;35.20;36.80;;;;;;1945439;74;21344;-50
2021/07/12 12:23:29;;;;;;;13.93;10.28;;;35.00;36.70;;;;;;1945344;74;21113;-51
2021/07/12 12:26:07;;;;;;;15.63;9.55;;;34.90;37.20;;;;;;1945340;74;20999;-47
2021/07/12 12:28:48;;;;;;;18.12;10.53;;;34.80;37.60;;;;;;1940110;73;21051;-52
2021/07/12 12:31:17;;;;;;;19.42;9.78;;;34.90;38.10;;;;;;1933333;74;21039;-50
2021/07/12 12:33:58;;;;;;;14.58;10.03;;;35.00;38.10;;;;;;1935478;73;21080;-52
2021/07/12 12:36:32;;;;;;;14.25;9.68;;;34.90;38.50;;;;;;1935208;74;21117;-48
2021/07/12 12:39:01;;;;;;;;;;;34.90;38.30;;;;;;1937214;74;21015;-50
2021/07/12 12:41:33;;;;;;;14.07;8.93;;;34.80;38.60;;;;;;1934927;73;20137;-50
2021/07/12 12:44:14;;;;;;;12.25;9.83;;;34.60;38.90;;;;;;1935610;74;21023;-51
2021/07/12 12:46:53;;;;;;;15.35;10.28;;;34.50;39.40;;;;;;1934972;74;21023;-48
2021/07/12 12:49:33;;;;;;;14.65;10.53;;;34.50;39.90;;;;;;1935224;74;21011;-48
2021/07/12 12:52:04;;;;;;;18.82;11.00;;;34.50;40.50;;;;;;1935307;74;21073;-51
2021/07/12 12:54:39;;;;;;;14.78;10.58;;;34.40;40.70;;;;;;1935076;74;21120;-49
2021/07/12 12:57:09;;;;;;;11.45;10.13;;;34.40;41.20;;;;;;1935170;74;21182;-48
2021/07/12 12:59:46;;;;;;;13.18;10.45;;;34.30;40.70;;;;;;1935287;74;21011;-50